Strona główna
METAR-TAF:

METAR-TAF

Lotnisko :

Capital City Airport

Frankfort, Kentucky, Stany Zjednoczone

Szerokość geograficzna: 38-11-05N, Długość geograficzna: 084-54-12W, wysokość: 245 m

Aktualna obserwacja pogody

Raport powstał 1 godzina i 3 minut temu, godzina 18:53 UTC
Wiatr 8 kt od południowy zachód
Temperatura 34°C
Wilgotność 53%
Ciśnienie 1016 hPa
Widzialność: 16.1 km
Rozproszone chmury na wysokości 4400 ft

METAR: KFFT 201853Z AUTO 22008KT 10SM SCT044 34/23 A2999 RMK AO2 SLP144 T03390228

czas: 15:56 (19:56 UTC)


TAF: brakujący

Obserwacja i prognoza pogody dla ponad 4000 lotnisk (raport METAR i TAF).

Dostępne stacje oznaczono żółtymi i czerwonymi punktami na mapie.

Najedź kursorem aby zobaczyć nazwę stacji.

Kliknij aby zobaczyć obserwacje i prognozy pogody.

Aby zmienić mapę: kliknij na zielony przycisk z czarnym krzyżykiem, aby powiększyć; na zielony przycisk z myślnikiem, aby pomniejszyć; na zielone strzałki, aby przejść do map sąsiednich.


METAR-TAF: